createdAt,value
2022-10-04T00:01:28.541Z,3.73
2022-10-04T00:06:30.331Z,4.13
2022-10-04T00:11:44.345Z,4.17
2022-10-04T00:16:46.381Z,4.00
2022-10-04T00:21:54.741Z,4.57
2022-10-04T00:27:22.237Z,4.67
2022-10-04T00:32:27.049Z,4.40
2022-10-04T00:38:03.580Z,3.27
2022-10-04T00:43:16.658Z,3.83
2022-10-04T00:48:55.031Z,4.53
2022-10-04T00:54:06.652Z,4.57
2022-10-04T00:59:21.286Z,5.20
2022-10-04T01:04:45.197Z,4.80
2022-10-04T01:09:53.245Z,4.50
2022-10-04T01:15:17.449Z,4.93
2022-10-04T01:20:32.718Z,4.43
2022-10-04T01:25:51.168Z,6.43
2022-10-04T01:30:53.073Z,6.07
2022-10-04T01:35:54.968Z,4.93
2022-10-04T01:41:00.540Z,5.47
2022-10-04T01:46:06.940Z,5.10
2022-10-04T01:51:33.582Z,4.83
2022-10-04T01:56:59.883Z,5.77
2022-10-04T02:02:34.066Z,5.90
2022-10-04T02:07:36.867Z,6.67
2022-10-04T02:12:44.304Z,5.63
2022-10-04T02:17:46.640Z,5.70
2022-10-04T02:22:52.079Z,5.40
2022-10-04T02:27:54.267Z,5.70
2022-10-04T02:33:00.592Z,6.00
2022-10-04T02:38:08.324Z,6.17
2022-10-04T02:43:15.091Z,5.53
2022-10-04T02:48:47.387Z,5.47
2022-10-04T02:54:03.693Z,5.73
2022-10-04T02:59:06.830Z,5.70
2022-10-04T03:04:11.845Z,6.73
2022-10-04T03:09:14.996Z,5.70
2022-10-04T03:14:20.511Z,6.87
2022-10-04T03:19:24.172Z,7.30
2022-10-04T03:24:31.043Z,7.20
2022-10-04T03:29:34.193Z,6.87
2022-10-04T03:34:38.136Z,6.93
2022-10-04T03:39:46.079Z,7.30
2022-10-04T03:44:50.937Z,6.70
2022-10-04T03:49:54.907Z,6.57
2022-10-04T03:54:59.753Z,6.90
2022-10-04T04:00:02.024Z,7.03
2022-10-04T04:05:32.366Z,9.03
2022-10-04T04:10:37.662Z,8.57
2022-10-04T04:15:50.715Z,8.80
2022-10-04T04:20:59.700Z,7.97
2022-10-04T04:26:21.443Z,8.73
2022-10-04T04:31:26.962Z,8.87
2022-10-04T04:36:38.538Z,8.53
2022-10-04T04:41:41.461Z,7.87
2022-10-04T04:46:44.729Z,8.27
2022-10-04T04:51:52.217Z,7.23
2022-10-04T04:56:55.387Z,7.80
2022-10-04T05:01:57.410Z,8.30
2022-10-04T05:07:02.299Z,7.87
2022-10-04T05:12:14.667Z,8.47
2022-10-04T05:17:20.329Z,7.80
2022-10-04T05:22:23.833Z,8.03
2022-10-04T05:27:29.380Z,8.10
2022-10-04T05:32:43.990Z,8.10
2022-10-04T05:37:45.696Z,8.00
2022-10-04T05:42:47.416Z,7.77
2022-10-04T05:47:54.804Z,8.07
2022-10-04T05:53:28.505Z,8.20
2022-10-04T05:58:45.092Z,8.73
2022-10-04T06:04:16.649Z,7.60
2022-10-04T06:09:27.518Z,7.87
2022-10-04T06:15:02.332Z,8.23
2022-10-04T06:20:15.698Z,9.80
2022-10-04T06:25:28.763Z,7.80
2022-10-04T06:30:53.443Z,8.20
2022-10-04T06:36:13.913Z,8.30
2022-10-04T06:41:15.564Z,7.73
2022-10-04T06:46:17.785Z,9.37
2022-10-04T06:51:53.780Z,9.67
2022-10-04T06:57:04.845Z,10.63
2022-10-04T07:02:17.811Z,10.23
2022-10-04T07:07:35.431Z,10.00
2022-10-04T07:12:41.560Z,9.07
2022-10-04T07:17:44.838Z,9.97
2022-10-04T07:23:11.283Z,10.33
2022-10-04T07:28:38.830Z,9.30
2022-10-04T07:33:52.032Z,10.23
2022-10-04T07:38:59.511Z,9.17
2022-10-04T07:44:12.972Z,8.47
2022-10-04T07:49:16.634Z,6.87
2022-10-04T07:54:35.594Z,7.50
2022-10-04T07:59:41.266Z,7.30
2022-10-04T08:04:50.932Z,7.27
2022-10-04T08:10:08.281Z,5.67
2022-10-04T08:15:35.034Z,5.67
2022-10-04T08:20:53.894Z,5.63
2022-10-04T08:26:07.959Z,5.83
2022-10-04T08:31:51.569Z,6.00
2022-10-04T08:37:25.455Z,6.20
2022-10-04T08:43:00.842Z,4.37
2022-10-04T08:48:24.649Z,4.50
2022-10-04T08:53:42.319Z,4.37
2022-10-04T08:59:31.668Z,4.20
2022-10-04T09:04:59.693Z,4.07
2022-10-04T09:10:25.052Z,3.13
2022-10-04T09:15:36.075Z,3.13
2022-10-04T09:20:43.699Z,3.70
2022-10-04T09:25:49.747Z,2.93
2022-10-04T09:31:17.893Z,3.37
2022-10-04T09:36:58.202Z,3.20
2022-10-04T09:42:26.755Z,3.27
2022-10-04T09:47:38.907Z,3.23
2022-10-04T09:53:15.801Z,3.07
2022-10-04T09:58:46.193Z,3.97
2022-10-04T10:04:04.466Z,2.97
2022-10-04T10:09:55.387Z,3.57
2022-10-04T10:15:12.560Z,2.93
2022-10-04T10:20:40.596Z,3.50
2022-10-04T10:26:03.241Z,3.07
2022-10-04T10:31:23.764Z,2.73
2022-10-04T10:36:53.731Z,2.93
2022-10-04T10:42:23.431Z,2.80
2022-10-04T10:47:34.138Z,3.20
2022-10-04T10:53:08.008Z,2.93
2022-10-04T10:58:44.482Z,2.60
2022-10-04T11:04:14.427Z,2.63
2022-10-04T11:09:28.756Z,3.33
2022-10-04T11:15:06.557Z,3.20
2022-10-04T11:20:15.585Z,2.93
2022-10-04T11:26:06.496Z,2.80
2022-10-04T11:31:45.964Z,3.67
2022-10-04T11:37:02.900Z,2.33
2022-10-04T11:42:31.056Z,3.80
2022-10-04T11:47:49.130Z,2.53
2022-10-04T11:53:09.244Z,2.73
2022-10-04T11:58:23.652Z,2.50
2022-10-04T12:03:44.404Z,3.77
2022-10-04T12:08:47.182Z,2.50
2022-10-04T12:14:27.447Z,3.00
2022-10-04T12:19:58.816Z,3.53
2022-10-04T12:25:46.352Z,3.37
2022-10-04T12:31:11.750Z,3.13
2022-10-04T12:43:18.900Z,2.90
2022-10-04T12:49:26.643Z,2.23
2022-10-04T12:54:55.180Z,3.37
2022-10-04T13:00:20.042Z,2.63
2022-10-04T13:05:44.993Z,2.17
2022-10-04T13:11:43.354Z,2.67
2022-10-04T13:17:35.079Z,2.47
2022-10-04T13:28:52.131Z,3.17
2022-10-04T13:34:45.243Z,2.47
2022-10-04T13:40:00.827Z,2.47
2022-10-04T13:45:37.044Z,2.77
2022-10-04T13:51:28.097Z,2.60
2022-10-04T13:56:48.427Z,2.93
2022-10-04T14:02:14.529Z,2.93
2022-10-04T14:07:40.908Z,2.27
2022-10-04T14:13:18.639Z,2.47
2022-10-04T14:18:27.131Z,4.03
2022-10-04T14:24:00.648Z,3.30
2022-10-04T14:29:17.986Z,2.27
2022-10-04T14:34:47.598Z,2.70
2022-10-04T14:40:11.581Z,2.43
2022-10-04T14:45:50.725Z,3.00
2022-10-04T14:51:26.716Z,3.17
2022-10-04T14:56:55.160Z,2.60
2022-10-04T15:02:21.565Z,3.03
2022-10-04T15:07:47.890Z,3.20
2022-10-04T15:13:16.292Z,2.90
2022-10-04T15:18:45.917Z,3.13
2022-10-04T15:24:07.799Z,2.90
2022-10-04T15:29:30.760Z,3.23
2022-10-04T15:34:48.340Z,3.57
2022-10-04T15:40:25.911Z,3.37
2022-10-04T15:46:21.925Z,3.40
2022-10-04T15:51:48.862Z,3.47
2022-10-04T15:57:04.971Z,2.93
2022-10-04T16:02:51.691Z,3.13
2022-10-04T16:08:13.342Z,3.33
2022-10-04T16:13:36.404Z,3.13
2022-10-04T16:19:19.872Z,4.07
2022-10-04T16:24:55.240Z,2.83
2022-10-04T16:30:26.693Z,3.80
2022-10-04T16:43:07.450Z,3.33
2022-10-04T16:54:34.263Z,2.67
2022-10-04T16:59:43.252Z,2.80
2022-10-04T17:11:21.509Z,3.10
2022-10-04T17:16:37.961Z,3.07
2022-10-04T17:21:54.620Z,4.33
2022-10-04T17:27:28.154Z,3.03
2022-10-04T17:32:50.913Z,3.33
2022-10-04T17:38:18.913Z,2.10
2022-10-04T17:49:37.278Z,3.83
2022-10-04T17:54:59.407Z,2.80
2022-10-04T18:00:17.391Z,2.87
2022-10-04T18:05:30.932Z,3.30
2022-10-04T18:23:01.882Z,3.40
2022-10-04T18:28:19.948Z,3.90
2022-10-04T18:33:29.319Z,2.67
2022-10-04T18:38:33.749Z,3.30
2022-10-04T18:43:53.460Z,3.30
2022-10-04T18:49:11.204Z,3.27
2022-10-04T18:54:37.194Z,3.03
2022-10-04T19:00:42.705Z,3.17
2022-10-04T19:06:09.809Z,4.43
2022-10-04T19:11:16.558Z,3.07
2022-10-04T19:16:44.704Z,2.93
2022-10-04T19:21:54.781Z,3.20
2022-10-04T19:27:02.081Z,3.23
2022-10-04T19:32:19.599Z,3.80
2022-10-04T19:37:39.945Z,3.17
2022-10-04T19:42:59.235Z,3.13
2022-10-04T19:48:07.099Z,4.27
2022-10-04T19:53:19.719Z,3.20
2022-10-04T19:58:31.802Z,3.23
2022-10-04T20:03:34.090Z,3.13
2022-10-04T20:08:47.738Z,3.30
2022-10-04T20:14:21.507Z,3.73
2022-10-04T20:19:29.119Z,2.50
2022-10-04T20:24:36.500Z,3.23
2022-10-04T20:29:38.085Z,3.40
2022-10-04T20:34:39.731Z,4.73
2022-10-04T20:39:41.393Z,3.23
2022-10-04T20:45:11.341Z,3.63
2022-10-04T20:50:25.356Z,4.03
2022-10-04T20:55:30.039Z,3.63
2022-10-04T21:00:34.029Z,3.23
2022-10-04T21:05:36.087Z,3.10
2022-10-04T21:11:29.394Z,3.33
2022-10-04T21:17:23.730Z,4.07
2022-10-04T21:22:55.554Z,3.33
2022-10-04T21:28:31.866Z,4.37
2022-10-04T21:33:37.015Z,4.03
2022-10-04T21:38:38.789Z,3.23
2022-10-04T21:44:05.864Z,3.70
2022-10-04T21:49:33.745Z,3.83
2022-10-04T21:54:37.906Z,3.40
2022-10-04T21:59:39.720Z,3.57
2022-10-04T22:04:41.888Z,4.03
2022-10-04T22:09:43.556Z,3.60
2022-10-04T22:14:45.484Z,3.83
2022-10-04T22:19:54.459Z,4.30
2022-10-04T22:24:56.296Z,3.90
2022-10-04T22:30:01.630Z,4.23
2022-10-04T22:35:13.374Z,3.93
2022-10-04T22:40:25.763Z,4.37
2022-10-04T22:45:30.296Z,4.20
2022-10-04T22:50:35.413Z,4.20
2022-10-04T22:55:41.238Z,4.07
2022-10-04T23:00:52.764Z,5.20
2022-10-04T23:05:54.558Z,5.43
2022-10-04T23:11:00.677Z,4.73
2022-10-04T23:16:15.143Z,5.07
2022-10-04T23:21:25.393Z,5.33
2022-10-04T23:26:34.878Z,5.17
2022-10-04T23:31:37.087Z,4.67
2022-10-04T23:36:38.743Z,4.60
2022-10-04T23:41:40.575Z,4.67
2022-10-04T23:46:43.072Z,4.77
2022-10-04T23:51:45.659Z,5.57
2022-10-04T23:56:48.280Z,4.80
